Time;durP1;ratioP1;P1;durP2;ratioP2;P2;SDS_P1;SDS_P2;PMS_P1;PMS_P2;Temp;Humidity;BMP_temperature;BMP_pressure;BME280_temperature;BME280_humidity;BME280_pressure;Samples;Min_cycle;Max_cycle;Signal;HPM_P1;HPM_P2
2022/05/10 00:01:46;;;;;;;5.00;3.25;;;;;;;15.03;48.40;101956.19;4995755;28;20720;-55
2022/05/10 00:04:13;;;;;;;6.75;3.33;;;;;;;14.91;48.84;101951.75;4991249;28;20643;-54
2022/05/10 00:06:43;;;;;;;8.10;4.38;;;;;;;14.93;48.56;101954.41;4999662;28;20697;-53
2022/05/10 00:09:10;;;;;;;4.20;3.72;;;;;;;14.89;49.50;101960.59;4983952;28;20253;-52
2022/05/10 00:11:36;;;;;;;5.07;3.95;;;;;;;14.78;49.54;101950.88;4989260;28;20242;-53
2022/05/10 00:14:03;;;;;;;4.80;3.42;;;;;;;14.88;50.15;101948.22;4984279;28;20241;-53
2022/05/10 00:16:31;;;;;;;5.72;3.53;;;;;;;14.71;49.38;101956.16;4993009;28;20280;-53
2022/05/10 00:18:57;;;;;;;8.13;3.60;;;;;;;14.75;49.87;101948.25;4999688;28;20257;-52
2022/05/10 00:21:25;;;;;;;6.25;4.32;;;;;;;14.79;49.32;101950.00;5003528;28;20264;-51
2022/05/10 00:23:51;;;;;;;6.30;4.25;;;;;;;14.73;49.48;101955.25;5000262;28;20288;-52
2022/05/10 00:26:18;;;;;;;3.78;3.40;;;;;;;14.75;49.78;101953.53;5000819;28;20237;-52
2022/05/10 00:28:45;;;;;;;3.80;3.40;;;;;;;14.82;49.07;101942.97;4998294;28;20230;-52
2022/05/10 00:31:12;;;;;;;6.88;3.97;;;;;;;14.83;49.36;101948.25;4988622;28;20242;-57
2022/05/10 00:33:40;;;;;;;4.13;3.55;;;;;;;14.83;49.15;101945.59;4994852;28;20246;-52
2022/05/10 00:36:07;;;;;;;8.35;4.05;;;;;;;14.85;49.95;101942.94;5001702;28;20347;-54
2022/05/10 00:38:35;;;;;;;6.40;3.65;;;;;;;14.78;49.53;101939.44;4994191;28;20257;-54
2022/05/10 00:41:05;;;;;;;7.57;3.83;;;;;;;14.70;49.44;101934.09;5002026;28;20299;-52
2022/05/10 00:43:35;;;;;;;7.28;3.92;;;;;;;14.61;50.40;101928.84;5003185;28;20241;-52
2022/05/10 00:46:05;;;;;;;3.60;3.05;;;;;;;14.50;49.88;101920.00;4996490;28;20253;-52
2022/05/10 00:48:35;;;;;;;3.83;3.47;;;;;;;14.47;50.41;101914.69;4997973;28;20668;-54
2022/05/10 00:51:09;;;;;;;3.58;3.10;;;;;;;14.50;50.83;101910.31;4995586;28;20264;-53
2022/05/10 00:53:48;;;;;;;7.78;4.90;;;;;;;14.52;50.44;101907.66;5007471;28;20231;-53
2022/05/10 00:56:21;;;;;;;6.43;3.58;;;;;;;14.56;50.28;101906.78;4996467;28;20237;-52
2022/05/10 00:58:54;;;;;;;5.10;3.70;;;;;;;14.52;49.95;101907.66;5003755;28;20268;-52
2022/05/10 01:01:25;;;;;;;4.72;3.80;;;;;;;14.53;50.54;101909.41;5006574;28;20256;-52
2022/05/10 01:03:55;;;;;;;7.57;4.40;;;;;;;14.38;51.09;101904.09;5001760;28;20695;-53
2022/05/10 01:06:26;;;;;;;8.90;4.10;;;;;;;14.39;51.26;101895.25;4995992;28;20237;-52
2022/05/10 01:08:57;;;;;;;7.00;4.15;;;;;;;14.35;50.74;101898.78;5006722;28;20229;-52
2022/05/10 01:11:26;;;;;;;5.78;4.35;;;;;;;14.27;51.09;101891.72;5007414;28;20233;-52
2022/05/10 01:13:56;;;;;;;5.25;3.47;;;;;;;14.29;52.85;101889.97;5003921;28;20233;-52
2022/05/10 01:16:23;;;;;;;4.85;3.80;;;;;;;14.30;51.97;101893.50;5010168;28;20648;-52
2022/05/10 01:18:51;;;;;;;5.30;3.83;;;;;;;14.17;51.88;101884.66;5006537;28;20765;-52
2022/05/10 01:21:28;;;;;;;5.13;4.13;;;;;;;14.30;51.91;101886.44;5002497;28;20337;-52
2022/05/10 01:24:22;;;;;;;3.63;3.25;;;;;;;14.13;51.74;101874.97;5005531;28;20217;-51
2022/05/10 01:26:59;;;;;;;4.72;3.95;;;;;;;14.11;51.81;101874.09;4992086;28;20230;-52
2022/05/10 01:29:30;;;;;;;9.30;4.10;;;;;;;14.01;52.78;101877.59;5006929;28;20359;-52
2022/05/10 01:34:43;;;;;;;4.45;3.40;;;;;;;13.89;54.14;101866.97;5001340;28;20744;-52
2022/05/10 01:37:14;;;;;;;6.03;3.85;;;;;;;13.92;54.00;101859.06;5006390;28;20288;-52
2022/05/10 01:39:45;;;;;;;6.68;4.75;;;;;;;13.94;54.05;101860.84;4998817;28;20878;-52
2022/05/10 01:42:16;;;;;;;6.53;3.70;;;;;;;13.88;52.88;101862.56;4999759;28;20244;-53
2022/05/10 01:44:47;;;;;;;7.10;4.07;;;;;;;13.90;53.64;101852.88;5003442;28;20725;-54
2022/05/10 01:47:15;;;;;;;6.68;4.32;;;;;;;13.90;52.93;101858.16;4988433;28;20798;-52
2022/05/10 01:49:45;;;;;;;6.38;3.78;;;;;;;13.89;53.57;101861.69;5004420;28;20249;-56
2022/05/10 01:52:14;;;;;;;5.10;4.00;;;;;;;13.90;52.97;101863.44;5003622;28;20714;-52
2022/05/10 01:54:58;;;;;;;8.65;4.10;;;;;;;13.80;54.27;101857.28;4969308;28;20301;-53
2022/05/10 01:57:25;;;;;;;4.97;4.30;;;;;;;13.72;53.79;101858.97;4999053;28;20306;-53
2022/05/10 01:59:56;;;;;;;4.40;3.72;;;;;;;13.67;53.33;101866.00;5003182;28;20248;-54
2022/05/10 02:02:24;;;;;;;5.60;4.45;;;;;;;13.67;54.23;101866.00;5003612;28;20237;-52
2022/05/10 02:04:52;;;;;;;6.82;3.95;;;;;;;13.68;55.32;101868.63;5003466;28;20257;-52
2022/05/10 02:07:20;;;;;;;5.32;4.28;;;;;;;13.64;54.22;101858.94;4999378;28;20253;-52
2022/05/10 02:09:49;;;;;;;6.70;4.15;;;;;;;13.67;55.32;101858.09;5001688;28;20230;-53
2022/05/10 02:12:20;;;;;;;5.35;4.30;;;;;;;13.55;55.05;101858.94;4994275;28;20241;-53
2022/05/10 02:14:49;;;;;;;4.75;4.10;;;;;;;13.54;55.33;101855.38;4998100;28;20273;-52
2022/05/10 02:17:21;;;;;;;11.93;5.07;;;;;;;13.47;55.60;101853.59;5004975;28;20229;-53
2022/05/10 02:19:54;;;;;;;6.72;4.15;;;;;;;13.44;55.10;101848.28;5001000;28;20291;-53
2022/05/10 02:22:23;;;;;;;5.05;3.58;;;;;;;13.53;56.25;101842.19;5000308;28;20292;-53
2022/05/10 02:24:53;;;;;;;6.20;3.85;;;;;;;13.57;55.87;101843.97;4999869;28;20251;-52
2022/05/10 02:27:21;;;;;;;4.90;3.88;;;;;;;13.48;55.70;101838.63;4998346;28;20291;-54
2022/05/10 02:29:50;;;;;;;5.75;4.20;;;;;;;13.45;55.49;101833.38;4998287;28;20241;-52
2022/05/10 02:35:08;;;;;;;6.00;3.80;;;;;;;13.52;55.11;101843.06;4998819;28;20790;-53
2022/05/10 02:37:35;;;;;;;5.55;4.03;;;;;;;13.46;54.87;101832.50;5001059;28;20275;-54
2022/05/10 02:40:01;;;;;;;4.68;3.63;;;;;;;13.40;55.42;101827.19;4999910;28;20233;-52
2022/05/10 02:42:28;;;;;;;5.15;4.70;;;;;;;13.26;55.90;101827.97;4998563;28;20309;-54
2022/05/10 02:44:55;;;;;;;7.35;4.22;;;;;;;13.46;57.50;101820.19;4994115;28;20328;-53
2022/05/10 02:47:30;;;;;;;6.03;4.10;;;;;;;13.54;55.70;101828.13;4996675;28;20680;-53
2022/05/10 02:49:57;;;;;;;4.65;4.22;;;;;;;13.45;56.68;101817.53;4999310;28;20225;-52
2022/05/10 02:52:23;;;;;;;6.10;4.57;;;;;;;13.42;56.05;101821.03;5005481;28;20241;-53
2022/05/10 02:54:54;;;;;;;9.27;4.25;;;;;;;13.38;56.29;101811.34;4999451;28;20322;-52
2022/05/10 02:57:21;;;;;;;6.65;4.03;;;;;;;13.39;57.27;101822.78;4994979;28;20243;-52
2022/05/10 02:59:47;;;;;;;9.02;4.68;;;;;;;13.42;56.01;101810.50;4997382;28;20240;-53
2022/05/10 03:02:18;;;;;;;6.25;5.10;;;;;;;13.24;55.75;101807.75;4995110;28;20712;-52
2022/05/10 03:04:51;;;;;;;9.38;4.20;;;;;;;13.10;56.02;101803.25;5004395;28;20817;-53
2022/05/10 03:07:18;;;;;;;5.00;4.47;;;;;;;13.27;56.10;101813.94;4999710;28;20600;-52
2022/05/10 03:09:44;;;;;;;7.03;4.43;;;;;;;13.25;55.89;101810.41;4997495;28;20229;-53
2022/05/10 03:12:11;;;;;;;7.85;4.13;;;;;;;13.22;57.18;101810.34;5005797;28;20236;-53
2022/05/10 03:14:38;;;;;;;6.72;4.15;;;;;;;13.22;57.66;101810.34;4997218;28;20291;-53
2022/05/10 03:17:04;;;;;;;5.07;4.03;;;;;;;13.21;57.73;101803.31;4997531;28;20233;-54
2022/05/10 03:19:32;;;;;;;5.13;4.20;;;;;;;13.20;58.23;101812.13;5005350;28;20229;-52
2022/05/10 03:22:00;;;;;;;5.72;4.35;;;;;;;13.19;57.68;101805.06;5001156;28;20230;-53
2022/05/10 03:24:26;;;;;;;9.70;4.70;;;;;;;13.07;57.33;101805.00;4999634;28;20392;-52
2022/05/10 03:26:53;;;;;;;5.07;4.57;;;;;;;12.96;57.25;101814.59;4987763;28;20665;-54
2022/05/10 03:29:20;;;;;;;5.68;4.20;;;;;;;12.84;57.18;101808.34;5003895;28;20656;-53
2022/05/10 03:31:47;;;;;;;6.75;5.28;;;;;;;12.87;57.64;101800.47;5003540;28;20272;-52
2022/05/10 03:36:57;;;;;;;6.40;4.57;;;;;;;13.00;58.71;101804.06;4998034;28;20232;-52
2022/05/10 03:39:25;;;;;;;9.85;5.07;;;;;;;12.88;58.67;101801.34;5002443;28;20233;-53
2022/05/10 03:41:51;;;;;;;5.97;5.22;;;;;;;12.86;57.69;101788.16;5002376;28;20241;-55
2022/05/10 03:44:18;;;;;;;5.20;3.88;;;;;;;12.89;57.70;101796.09;5001969;28;20256;-53
2022/05/10 03:46:44;;;;;;;4.97;3.90;;;;;;;12.79;57.50;101798.66;4996710;28;20287;-53
2022/05/10 03:49:11;;;;;;;5.70;4.38;;;;;;;12.79;58.49;101798.66;4993832;28;20233;-54
2022/05/10 03:51:37;;;;;;;9.15;5.00;;;;;;;12.84;58.61;101795.16;5004765;28;20393;-53
2022/05/10 03:54:04;;;;;;;8.45;4.80;;;;;;;12.74;57.32;101790.75;4995256;28;20290;-51
2022/05/10 03:56:33;;;;;;;6.35;4.43;;;;;;;12.83;57.78;101793.41;4990463;28;20763;-52
2022/05/10 03:59:00;;;;;;;4.65;4.15;;;;;;;12.87;58.03;101792.56;5004377;28;20236;-52
2022/05/10 04:01:27;;;;;;;4.95;4.43;;;;;;;12.94;58.13;101782.06;4996880;28;20287;-52
2022/05/10 04:03:53;;;;;;;6.55;4.07;;;;;;;12.98;58.58;101783.84;4997099;28;20601;-52
2022/05/10 04:06:20;;;;;;;5.53;4.60;;;;;;;12.90;57.71;101787.31;5001766;28;20287;-54
2022/05/10 04:08:46;;;;;;;5.90;3.90;;;;;;;12.96;58.05;101777.69;4996309;28;20295;-52
2022/05/10 04:11:14;;;;;;;5.97;4.80;;;;;;;12.86;57.20;101775.00;5002328;28;20789;-53
2022/05/10 04:13:43;;;;;;;6.63;4.63;;;;;;;12.95;57.15;101783.81;4998127;28;20257;-53
2022/05/10 04:16:09;;;;;;;5.80;3.95;;;;;;;12.97;57.76;101776.81;5000950;28;20258;-53
2022/05/10 04:18:36;;;;;;;6.47;4.20;;;;;;;12.82;57.55;101773.22;5006771;28;20249;-53
2022/05/10 04:21:03;;;;;;;6.75;4.72;;;;;;;12.91;57.99;101772.38;5004754;28;20285;-53
2022/05/10 04:23:29;;;;;;;10.90;5.35;;;;;;;13.03;58.49;101772.47;5006308;28;20237;-52
2022/05/10 04:25:56;;;;;;;5.65;4.47;;;;;;;13.02;58.20;101775.97;5006472;28;20237;-52
2022/05/10 04:28:22;;;;;;;8.90;3.85;;;;;;;13.13;58.61;101773.41;5006412;28;20292;-52
2022/05/10 04:30:50;;;;;;;5.97;4.55;;;;;;;13.08;57.35;101769.84;5000843;28;20257;-52
2022/05/10 04:33:16;;;;;;;9.10;4.88;;;;;;;13.09;58.30;101768.97;5005118;28;20332;-52
2022/05/10 04:35:42;;;;;;;5.95;4.75;;;;;;;12.82;57.77;101760.03;5006439;28;20233;-58
2022/05/10 04:38:09;;;;;;;5.97;4.43;;;;;;;12.90;58.09;101755.69;5002439;28;20249;-53
2022/05/10 04:43:19;;;;;;;5.93;4.60;;;;;;;13.12;58.55;101758.44;4999003;28;20341;-52
2022/05/10 04:45:46;;;;;;;5.72;4.85;;;;;;;13.12;57.85;101754.03;4997501;28;20246;-53
2022/05/10 04:48:14;;;;;;;6.47;5.05;;;;;;;13.17;56.80;101753.19;5004793;28;20229;-53
2022/05/10 04:50:40;;;;;;;5.40;4.35;;;;;;;13.10;57.73;101758.44;4999730;28;20234;-52
2022/05/10 04:53:06;;;;;;;8.38;5.47;;;;;;;13.19;57.78;101756.72;5003175;28;20245;-53
2022/05/10 04:55:33;;;;;;;5.82;4.22;;;;;;;13.28;57.30;101756.78;5006254;28;20319;-52
2022/05/10 04:57:59;;;;;;;10.23;5.00;;;;;;;13.25;56.72;101768.19;4996432;28;20222;-52
2022/05/10 05:00:26;;;;;;;7.85;5.38;;;;;;;13.16;57.00;101762.84;4999613;28;20295;-53
2022/05/10 05:02:52;;;;;;;6.43;4.68;;;;;;;13.20;56.22;101769.00;5007109;28;20233;-53
2022/05/10 05:05:20;;;;;;;10.05;5.10;;;;;;;13.29;55.84;101764.69;5006588;28;20711;-51
2022/05/10 05:07:46;;;;;;;5.47;4.78;;;;;;;13.25;56.63;101762.94;5006770;28;20263;-53
2022/05/10 05:10:13;;;;;;;9.43;5.10;;;;;;;13.30;57.90;101760.31;5002513;28;20229;-57
2022/05/10 05:12:39;;;;;;;7.18;5.32;;;;;;;13.41;56.17;101763.88;4999356;28;20264;-54
2022/05/10 05:15:09;;;;;;;7.28;5.45;;;;;;;13.41;57.60;101755.06;4994190;28;20273;-52
2022/05/10 05:17:35;;;;;;;5.82;4.78;;;;;;;13.41;56.59;101763.88;5006545;28;20237;-54
2022/05/10 05:20:01;;;;;;;7.95;4.50;;;;;;;13.56;55.87;101761.28;5000228;28;20661;-54
2022/05/10 05:22:29;;;;;;;8.82;4.82;;;;;;;13.50;55.52;101752.47;5000833;28;20249;-55
2022/05/10 05:24:56;;;;;;;9.15;4.65;;;;;;;13.54;55.80;101755.13;5004561;28;20237;-52
2022/05/10 05:27:23;;;;;;;7.43;5.78;;;;;;;13.56;55.77;101755.13;5002210;28;20291;-52
2022/05/10 05:29:49;;;;;;;10.30;5.90;;;;;;;13.72;55.25;101746.38;4998049;28;20233;-54
2022/05/10 05:32:18;;;;;;;7.55;5.60;;;;;;;13.62;55.57;101752.53;4999576;28;20237;-52
2022/05/10 05:34:44;;;;;;;9.25;5.55;;;;;;;13.88;55.45;101746.41;5001499;28;20645;-52
2022/05/10 05:39:56;;;;;;;6.28;5.18;;;;;;;13.81;55.70;101746.41;5002846;28;20757;-51
2022/05/10 05:42:22;;;;;;;10.93;5.63;;;;;;;13.95;55.48;101756.09;5003865;28;20229;-52
2022/05/10 05:44:49;;;;;;;8.35;5.43;;;;;;;14.05;55.17;101744.69;5005144;28;20233;-53
2022/05/10 05:47:15;;;;;;;8.45;5.72;;;;;;;14.18;55.02;101748.19;5002353;28;20256;-55
2022/05/10 05:49:41;;;;;;;12.98;5.20;;;;;;;14.33;54.77;101746.44;5002302;28;20334;-52
2022/05/10 05:52:08;;;;;;;10.38;5.25;;;;;;;14.30;54.90;101745.56;4993856;28;20295;-53
2022/05/10 05:54:34;;;;;;;8.00;5.50;;;;;;;14.29;54.63;101741.16;4991243;28;20292;-53
2022/05/10 05:57:03;;;;;;;11.00;5.20;;;;;;;14.45;54.20;101745.53;5006727;28;20307;-54
2022/05/10 05:59:30;;;;;;;6.40;4.55;;;;;;;14.51;54.91;101742.06;4995023;28;20308;-52
2022/05/10 06:01:56;;;;;;;7.00;4.60;;;;;;;14.57;54.66;101742.06;5004743;28;20291;-53
2022/05/10 06:04:23;;;;;;;5.43;4.88;;;;;;;14.71;53.58;101735.00;4996307;28;20277;-53
2022/05/10 06:06:49;;;;;;;7.47;5.03;;;;;;;14.80;53.83;101740.25;5002648;28;20253;-53
2022/05/10 06:09:19;;;;;;;5.22;4.72;;;;;;;14.87;53.78;101740.22;5000473;28;20233;-53
2022/05/10 06:11:46;;;;;;;10.82;4.80;;;;;;;14.93;54.16;101740.22;5006652;28;20328;-52
2022/05/10 06:14:14;;;;;;;12.70;5.03;;;;;;;15.11;52.83;101745.44;5003875;28;20235;-52
2022/05/10 06:16:40;;;;;;;7.70;5.50;;;;;;;15.07;53.39;101740.19;4999255;28;20237;-53
2022/05/10 06:19:08;;;;;;;5.55;3.92;;;;;;;15.20;53.00;101734.84;4993374;28;20233;-54
2022/05/10 06:21:34;;;;;;;7.18;4.95;;;;;;;15.18;52.98;101741.88;4999872;28;20626;-53
2022/05/10 06:24:01;;;;;;;4.53;3.65;;;;;;;15.25;53.20;101732.16;5017065;28;20448;-52
2022/05/10 06:26:28;;;;;;;10.88;4.80;;;;;;;15.27;52.92;101731.28;5006001;28;20243;-52
2022/05/10 06:28:54;;;;;;;8.40;4.63;;;;;;;15.38;52.93;101731.22;5008387;28;20272;-52
2022/05/10 06:31:22;;;;;;;7.32;5.07;;;;;;;15.49;52.71;101731.19;5003139;28;20261;-52
2022/05/10 06:33:49;;;;;;;7.03;4.60;;;;;;;15.59;52.01;101732.88;5002287;28;20240;-52
2022/05/10 06:36:15;;;;;;;5.25;4.75;;;;;;;15.67;51.80;101723.16;4997804;28;20236;-53
2022/05/10 06:38:42;;;;;;;8.45;4.40;;;;;;;15.79;51.92;101721.31;4999902;28;20260;-52
2022/05/10 06:41:08;;;;;;;10.75;5.15;;;;;;;15.83;51.60;101723.94;4990006;28;20237;-52
2022/05/10 06:43:36;;;;;;;5.93;4.32;;;;;;;15.88;51.60;101713.31;4998901;28;20241;-52
2022/05/10 06:46:04;;;;;;;4.88;4.07;;;;;;;15.89;51.96;101712.41;4987941;28;20247;-51
2022/05/10 06:48:32;;;;;;;9.18;5.35;;;;;;;15.96;51.60;101712.34;4991441;28;20238;-53
2022/05/10 06:50:58;;;;;;;9.40;4.85;;;;;;;15.97;51.82;101702.66;5001673;28;20812;-52
2022/05/10 06:53:25;;;;;;;7.80;4.80;;;;;;;15.95;51.91;101705.31;5000324;28;20249;-53
2022/05/10 06:55:51;;;;;;;6.78;4.20;;;;;;;16.07;51.69;101701.66;4999179;28;20248;-54
2022/05/10 06:58:18;;;;;;;6.90;5.10;;;;;;;16.22;51.10;101704.22;5003139;28;20639;-53
2022/05/10 07:00:44;;;;;;;7.60;5.60;;;;;;;16.38;50.96;101704.06;4998954;28;20237;-53
2022/05/10 07:03:13;;;;;;;8.98;4.88;;;;;;;16.40;50.77;101696.97;4999603;28;20257;-53
2022/05/10 07:05:43;;;;;;;11.73;5.63;;;;;;;16.46;50.47;101702.19;5001612;28;20644;-52
2022/05/10 07:08:09;;;;;;;5.25;4.75;;;;;;;16.47;50.83;101693.38;4996242;28;20291;-53
2022/05/10 07:10:35;;;;;;;7.75;4.40;;;;;;;16.67;50.37;101701.09;5000156;28;20262;-54
2022/05/10 07:13:02;;;;;;;8.82;5.28;;;;;;;16.74;50.30;101691.31;5000275;28;20606;-53
2022/05/10 07:15:28;;;;;;;10.32;4.70;;;;;;;16.87;50.31;101688.53;5000280;28;20233;-53
2022/05/10 07:17:55;;;;;;;8.05;4.18;;;;;;;16.95;50.15;101691.09;5004218;28;20244;-52
2022/05/10 07:20:21;;;;;;;10.40;5.55;;;;;;;17.01;49.99;101685.72;4994037;28;20237;-52
2022/05/10 07:22:49;;;;;;;11.73;4.80;;;;;;;17.11;49.40;101689.16;4999743;28;20287;-53
2022/05/10 07:25:17;;;;;;;9.18;4.78;;;;;;;17.19;49.53;101687.25;5003191;28;20325;-53
2022/05/10 07:27:44;;;;;;;6.03;4.38;;;;;;;17.43;49.32;101688.72;4988857;28;20232;-54
2022/05/10 07:30:12;;;;;;;8.90;4.80;;;;;;;17.54;49.57;101685.91;5003176;28;20237;-52
2022/05/10 07:32:38;;;;;;;9.07;4.80;;;;;;;17.63;48.58;101686.66;5001879;28;20233;-54
2022/05/10 07:35:06;;;;;;;9.90;4.78;;;;;;;17.70;48.44;101686.56;5004714;28;20233;-53
2022/05/10 07:37:33;;;;;;;10.93;5.07;;;;;;;17.88;48.92;101679.19;4997977;28;20330;-52
2022/05/10 07:40:01;;;;;;;5.07;3.90;;;;;;;18.00;48.07;101678.13;4998042;28;20697;-52
2022/05/10 07:42:28;;;;;;;6.47;4.35;;;;;;;18.10;47.50;101666.44;4998595;28;20238;-53
2022/05/10 07:44:54;;;;;;;7.45;3.90;;;;;;;18.16;47.11;101664.59;4999190;28;20288;-52
2022/05/10 07:47:21;;;;;;;6.43;4.82;;;;;;;18.24;47.05;101665.31;5004486;28;20283;-52
2022/05/10 07:49:47;;;;;;;8.32;5.45;;;;;;;18.31;46.52;101664.28;4995160;28;20242;-52
2022/05/10 07:52:13;;;;;;;6.20;4.65;;;;;;;18.46;46.53;101663.13;5008093;28;20237;-52
2022/05/10 07:54:40;;;;;;;11.00;4.72;;;;;;;18.60;45.93;101667.31;4995024;28;20237;-52
2022/05/10 07:57:08;;;;;;;6.10;4.20;;;;;;;18.79;45.90;101659.00;4993164;28;20245;-52
2022/05/10 07:59:36;;;;;;;6.90;4.63;;;;;;;18.94;45.83;101656.00;5006330;28;20295;-53
2022/05/10 08:02:03;;;;;;;6.22;3.63;;;;;;;19.12;45.06;101656.50;5000053;28;20296;-53
2022/05/10 08:04:31;;;;;;;14.18;4.00;;;;;;;19.18;44.91;101653.72;5008197;28;20236;-54
2022/05/10 08:06:57;;;;;;;11.50;5.18;;;;;;;19.24;44.18;101645.63;5004141;28;20233;-53
2022/05/10 08:09:24;;;;;;;9.80;4.70;;;;;;;19.41;43.97;101648.78;5003579;28;20233;-56
2022/05/10 08:11:50;;;;;;;13.45;4.32;;;;;;;19.59;42.98;101646.59;4998462;28;20268;-53
2022/05/10 08:14:18;;;;;;;5.22;3.88;;;;;;;19.68;42.80;101638.38;5008000;28;20247;-53
2022/05/10 08:16:46;;;;;;;7.65;4.07;;;;;;;19.81;43.03;101639.84;5002375;28;20863;-53
2022/05/10 08:19:12;;;;;;;11.82;4.82;;;;;;;19.95;43.46;101635.03;5000035;28;20229;-52
2022/05/10 08:21:38;;;;;;;7.32;4.38;;;;;;;20.02;42.30;101636.63;4997112;28;20241;-52
2022/05/10 08:24:05;;;;;;;5.40;3.42;;;;;;;20.12;41.61;101639.06;5001115;28;20297;-52
2022/05/10 08:26:32;;;;;;;6.30;3.42;;;;;;;20.18;41.90;101628.22;4996542;28;20238;-53
2022/05/10 08:28:58;;;;;;;7.55;3.38;;;;;;;20.35;41.04;101636.66;5006838;28;20241;-53
2022/05/10 08:31:26;;;;;;;4.90;3.50;;;;;;;20.45;40.01;101630.16;4997183;28;20288;-53
2022/05/10 08:33:52;;;;;;;5.60;4.03;;;;;;;20.37;40.29;101624.16;4998908;28;20651;-52
2022/05/10 08:36:19;;;;;;;6.13;3.72;;;;;;;20.31;40.38;101624.31;4999359;28;20270;-52
2022/05/10 08:38:45;;;;;;;8.20;4.57;;;;;;;20.41;40.85;101623.16;5007678;28;20233;-53
2022/05/10 08:41:14;;;;;;;3.70;3.33;;;;;;;20.54;40.21;101618.38;4992224;28;20246;-53
2022/05/10 08:43:43;;;;;;;5.80;2.90;;;;;;;20.76;39.80;101621.31;5000516;28;20363;-53
2022/05/10 08:46:13;;;;;;;9.90;4.40;;;;;;;21.10;40.05;101615.84;5000748;28;20233;-53
2022/05/10 08:48:41;;;;;;;10.32;4.03;;;;;;;21.29;39.69;101615.25;5003308;28;20629;-52
2022/05/10 08:51:08;;;;;;;5.30;3.05;;;;;;;21.50;38.60;101619.09;5004927;28;20284;-53
2022/05/10 08:53:35;;;;;;;10.48;5.00;;;;;;;21.55;38.35;101611.78;5003607;28;20253;-52
2022/05/10 08:56:07;;;;;;;5.22;3.53;;;;;;;21.63;38.58;101610.63;5002078;28;20571;-51
2022/05/10 08:58:50;;;;;;;4.28;2.97;;;;;;;21.76;37.43;101605.75;5005695;28;20229;-52
2022/05/10 09:01:20;;;;;;;3.90;3.13;;;;;;;21.88;37.99;101599.09;5002662;28;20651;-53
2022/05/10 09:03:54;;;;;;;5.55;3.20;;;;;;;22.05;37.17;101596.72;5002525;28;20321;-53
2022/05/10 09:06:38;;;;;;;3.53;2.67;;;;;;;22.16;36.07;101601.72;5003830;28;20233;-52
2022/05/10 09:09:25;;;;;;;4.45;2.95;;;;;;;22.22;36.18;101597.94;4998313;28;20300;-52
2022/05/10 09:11:55;;;;;;;5.75;2.92;;;;;;;22.34;35.15;101597.50;4996155;28;20302;-52
2022/05/10 09:14:27;;;;;;;5.57;2.75;;;;;;;22.35;34.92;101594.75;5003802;28;20307;-51
2022/05/10 09:16:54;;;;;;;8.52;3.15;;;;;;;22.49;35.66;101591.59;5003326;28;20755;-51
2022/05/10 09:19:26;;;;;;;4.97;2.80;;;;;;;22.36;35.14;101587.63;5003057;28;20237;-52
2022/05/10 09:21:55;;;;;;;3.45;2.70;;;;;;;22.47;35.01;101579.22;5005224;28;20237;-52
2022/05/10 09:24:28;;;;;;;6.28;2.53;;;;;;;22.58;34.62;101582.34;5002115;28;20601;-51
2022/05/10 09:26:58;;;;;;;7.15;3.13;;;;;;;22.60;34.68;101583.16;5006222;28;20241;-53
2022/05/10 09:29:33;;;;;;;3.72;2.67;;;;;;;22.80;35.66;101585.94;5005312;28;20239;-52
2022/05/10 09:35:00;;;;;;;4.30;2.72;;;;;;;22.92;34.01;101573.94;5004486;28;20280;-51
2022/05/10 09:37:30;;;;;;;10.75;2.97;;;;;;;22.89;34.55;101567.81;5008746;28;20240;-53
2022/05/10 09:40:08;;;;;;;5.43;2.85;;;;;;;23.30;34.17;101571.53;5003607;28;20233;-52
2022/05/10 09:42:37;;;;;;;5.20;3.20;;;;;;;23.55;33.93;101557.97;4991903;28;20233;-52
2022/05/10 09:45:06;;;;;;;5.95;3.63;;;;;;;23.28;33.82;101568.91;5001883;28;20277;-51
2022/05/10 09:47:34;;;;;;;4.90;2.65;;;;;;;23.58;33.69;101560.53;5005931;28;20229;-51
2022/05/10 09:50:14;;;;;;;9.90;3.38;;;;;;;23.84;33.34;101563.97;4991880;28;20289;-51
2022/05/10 09:52:41;;;;;;;6.13;2.65;;;;;;;23.76;32.85;101551.75;5001506;28;20287;-57
2022/05/10 09:55:10;;;;;;;3.35;2.90;;;;;;;23.80;32.79;101548.00;5003839;28;20225;-52
2022/05/10 09:57:39;;;;;;;5.47;2.63;;;;;;;24.02;32.62;101558.66;5010578;28;20251;-50
2022/05/10 10:00:09;;;;;;;4.60;2.72;;;;;;;24.29;32.95;101555.69;5006189;28;20271;-50
2022/05/10 10:02:37;;;;;;;3.97;2.50;;;;;;;24.50;32.61;101551.19;5007618;28;20484;-51
2022/05/10 10:05:22;;;;;;;4.88;2.65;;;;;;;24.44;31.56;101548.78;5008722;28;20294;-52
2022/05/10 10:07:50;;;;;;;3.33;2.45;;;;;;;24.49;31.62;101552.13;4989514;28;20234;-52
2022/05/10 10:10:18;;;;;;;5.72;3.30;;;;;;;24.32;32.21;101549.28;4990529;28;20703;-52
2022/05/10 10:12:46;;;;;;;7.10;2.83;;;;;;;24.54;32.25;101538.50;5002548;28;20237;-52
2022/05/10 10:15:25;;;;;;;5.57;2.78;;;;;;;24.72;31.42;101533.13;4991487;28;20233;-52
2022/05/10 10:17:53;;;;;;;3.80;2.13;;;;;;;24.88;31.42;101535.94;5005078;28;20614;-52
2022/05/10 10:20:28;;;;;;;6.85;2.42;;;;;;;24.99;31.89;101527.34;5000693;28;20263;-52
2022/05/10 10:22:57;;;;;;;4.70;2.75;;;;;;;24.87;31.30;101525.28;5002430;28;20347;-52
2022/05/10 10:25:27;;;;;;;3.17;2.40;;;;;;;24.99;31.34;101524.66;5009614;28;20230;-52
2022/05/10 10:27:58;;;;;;;3.95;2.60;;;;;;;25.03;31.04;101514.63;5005004;28;20487;-52
2022/05/10 10:30:28;;;;;;;4.03;2.10;;;;;;;24.99;31.36;101508.53;5004252;28;20233;-51
2022/05/10 10:32:58;;;;;;;6.00;2.85;;;;;;;24.77;32.04;101504.22;5002280;28;20355;-54
2022/05/10 10:35:33;;;;;;;6.70;2.65;;;;;;;25.38;31.34;101494.13;5002154;28;20580;-52
2022/05/10 10:38:06;;;;;;;8.30;3.58;;;;;;;25.46;30.95;101491.91;5004539;28;20233;-51
2022/05/10 10:40:36;;;;;;;5.55;2.78;;;;;;;25.33;31.84;101493.47;5004011;28;20729;-52
2022/05/10 10:43:08;;;;;;;4.07;2.72;;;;;;;25.34;31.94;101495.19;5000777;28;20229;-53
2022/05/10 10:45:39;;;;;;;4.90;3.33;;;;;;;25.34;31.98;101492.50;5002427;28;20720;-51
2022/05/10 10:48:15;;;;;;;6.45;2.90;;;;;;;25.20;32.94;101480.66;5003576;28;20237;-51
2022/05/10 10:50:43;;;;;;;4.68;3.28;;;;;;;24.79;32.81;101485.34;4999512;28;20237;-52
2022/05/10 10:53:11;;;;;;;4.20;2.65;;;;;;;24.86;32.92;101481.44;4998884;28;20229;-52
2022/05/10 10:55:52;;;;;;;3.85;3.15;;;;;;;25.15;31.89;101466.56;5001302;28;20233;-51
2022/05/10 10:58:26;;;;;;;5.00;3.25;;;;;;;25.17;32.19;101467.38;4992210;28;20498;-51
2022/05/10 11:00:55;;;;;;;6.53;3.10;;;;;;;25.64;31.75;101455.13;5000394;28;20246;-52
2022/05/10 11:03:31;;;;;;;12.35;3.30;;;;;;;25.51;31.61;101459.38;4999807;28;20244;-51
2022/05/10 11:06:20;;;;;;;2.90;2.45;;;;;;;25.51;31.74;101451.31;5004489;28;20231;-51
2022/05/10 11:09:34;;;;;;;5.65;3.03;;;;;;;25.42;31.40;101444.63;4996105;28;20276;-51
2022/05/10 11:12:10;;;;;;;4.00;2.90;;;;;;;25.90;32.02;101448.38;4963598;28;20432;-58
2022/05/10 11:14:52;;;;;;;2.70;2.45;;;;;;;26.30;30.79;101439.00;5000415;28;20750;-51
2022/05/10 11:17:24;;;;;;;3.70;2.92;;;;;;;26.56;30.79;101434.84;4998670;28;20260;-53
2022/05/10 11:20:03;;;;;;;7.57;2.78;;;;;;;26.11;30.43;101436.44;4993918;28;20684;-51
2022/05/10 11:22:37;;;;;;;5.97;2.88;;;;;;;26.16;30.52;101438.91;4998902;28;20777;-52
2022/05/10 11:25:12;;;;;;;4.40;2.58;;;;;;;26.18;30.66;101427.09;4988717;28;20226;-50
2022/05/10 11:28:00;;;;;;;3.33;2.45;;;;;;;26.58;30.43;101419.50;5003467;28;20302;-52
2022/05/10 11:30:31;;;;;;;5.43;2.53;;;;;;;26.51;31.32;101423.50;4995616;28;20241;-53
2022/05/10 11:33:10;;;;;;;4.25;3.00;;;;;;;26.40;30.55;101415.13;5003087;28;20307;-52
2022/05/10 11:35:47;;;;;;;4.22;2.75;;;;;;;26.20;30.76;101420.75;5001469;28;20242;-51
2022/05/10 11:38:24;;;;;;;5.05;3.17;;;;;;;25.75;30.69;101416.88;4995709;28;20363;-52
2022/05/10 11:41:07;;;;;;;4.15;3.40;;;;;;;25.51;31.03;101405.59;5001369;28;20228;-51
2022/05/10 11:44:03;;;;;;;3.42;2.75;;;;;;;25.65;31.34;101403.06;5002717;28;20229;-51
2022/05/10 11:46:41;;;;;;;3.63;2.95;;;;;;;25.55;31.84;101399.13;4995656;28;20236;-52
2022/05/10 11:49:36;;;;;;;3.75;3.17;;;;;;;25.82;32.12;101397.66;4999680;28;20229;-53
2022/05/10 11:52:28;;;;;;;3.13;2.83;;;;;;;25.95;31.69;101387.13;4999686;28;20440;-51